createdAt,value
2023-01-19T00:00:21.617Z,-2.27
2023-01-19T00:05:23.212Z,-2.22
2023-01-19T00:10:24.889Z,-2.27
2023-01-19T00:15:26.468Z,-2.29
2023-01-19T00:20:28.064Z,-2.27
2023-01-19T00:25:29.762Z,-2.22
2023-01-19T00:30:31.446Z,-2.18
2023-01-19T00:35:33.911Z,-2.14
2023-01-19T00:40:35.592Z,-2.11
2023-01-19T00:45:37.225Z,-2.14
2023-01-19T00:50:38.792Z,-2.24
2023-01-19T00:55:40.364Z,-2.27
2023-01-19T01:00:41.973Z,-2.14
2023-01-19T01:05:43.643Z,-2.13
2023-01-19T01:10:45.221Z,-2.09
2023-01-19T01:15:50.065Z,-1.77
2023-01-19T01:20:51.993Z,-1.66
2023-01-19T01:25:54.029Z,-1.45
2023-01-19T01:30:56.547Z,-1.35
2023-01-19T01:35:58.161Z,-1.24
2023-01-19T01:40:59.765Z,-1.06
2023-01-19T01:46:01.406Z,-0.86
2023-01-19T01:51:24.181Z,-0.78
2023-01-19T01:56:32.653Z,-0.72
2023-01-19T02:01:53.201Z,-0.69
2023-01-19T02:07:13.486Z,-0.74
2023-01-19T02:12:33.630Z,-0.80
2023-01-19T02:17:35.222Z,-0.85
2023-01-19T02:22:45.871Z,-0.93
2023-01-19T02:27:48.251Z,-1.01
2023-01-19T02:32:50.087Z,-1.06
2023-01-19T02:37:53.411Z,-1.06
2023-01-19T02:43:00.894Z,-1.08
2023-01-19T02:48:04.690Z,-1.05
2023-01-19T02:53:29.184Z,-1.10
2023-01-19T02:58:53.072Z,-1.10
2023-01-19T03:04:01.048Z,-1.11
2023-01-19T03:09:11.277Z,-1.19
2023-01-19T03:14:18.534Z,-1.18
2023-01-19T03:19:31.327Z,-1.16
2023-01-19T03:24:37.129Z,-1.18
2023-01-19T03:29:46.589Z,-1.16
2023-01-19T03:34:50.307Z,-1.09
2023-01-19T03:39:52.153Z,-1.10
2023-01-19T03:44:56.626Z,-1.12
2023-01-19T03:49:58.584Z,-1.10
2023-01-19T03:55:01.573Z,-1.15
2023-01-19T04:00:04.136Z,-1.19
2023-01-19T04:05:06.139Z,-1.18
2023-01-19T04:10:12.634Z,-0.94
2023-01-19T04:15:15.247Z,-0.78
2023-01-19T04:20:17.198Z,-0.63
2023-01-19T04:25:18.814Z,-0.58
2023-01-19T04:30:20.579Z,-0.44
2023-01-19T04:35:22.543Z,-0.46
2023-01-19T04:40:24.614Z,-0.52
2023-01-19T04:45:26.253Z,-0.55
2023-01-19T04:50:27.852Z,-0.51
2023-01-19T04:55:29.572Z,-0.46
2023-01-19T05:00:31.691Z,-0.45
2023-01-19T05:05:36.365Z,-0.51
2023-01-19T05:10:38.107Z,-0.49
2023-01-19T05:15:39.713Z,-0.53
2023-01-19T05:20:41.325Z,-0.58
2023-01-19T05:25:44.581Z,-0.70
2023-01-19T05:30:46.221Z,-0.72
2023-01-19T05:35:51.910Z,-0.84
2023-01-19T05:40:59.409Z,-0.86
2023-01-19T05:46:01.112Z,-0.90
2023-01-19T05:51:02.789Z,-0.92
2023-01-19T05:56:08.733Z,-0.88
2023-01-19T06:01:10.510Z,-0.85
2023-01-19T06:06:13.527Z,-0.87
2023-01-19T06:11:15.403Z,-0.71
2023-01-19T06:16:16.988Z,-0.56
2023-01-19T06:21:18.615Z,-0.38
2023-01-19T06:26:20.229Z,-0.24
2023-01-19T06:31:22.374Z,-0.14
2023-01-19T06:36:24.109Z,-0.08
2023-01-19T06:41:26.651Z,-0.00
2023-01-19T06:46:28.698Z,0.10
2023-01-19T06:51:30.660Z,0.10
2023-01-19T06:56:32.264Z,0.12
2023-01-19T07:01:34.014Z,0.09
2023-01-19T07:06:35.632Z,-0.02
2023-01-19T07:11:37.227Z,0.05
2023-01-19T07:16:38.967Z,0.02
2023-01-19T07:21:40.592Z,-0.01
2023-01-19T07:26:42.424Z,-0.05
2023-01-19T07:31:44.164Z,-0.03
2023-01-19T07:36:45.864Z,-0.08
2023-01-19T07:41:50.603Z,0.11
2023-01-19T07:46:52.266Z,0.32
2023-01-19T07:51:56.364Z,0.51
2023-01-19T07:56:58.056Z,0.50
2023-01-19T08:01:59.983Z,0.70
2023-01-19T08:07:02.149Z,0.78
2023-01-19T08:12:04.099Z,0.67
2023-01-19T08:17:05.725Z,0.97
2023-01-19T08:22:07.403Z,1.07
2023-01-19T08:27:10.036Z,0.94
2023-01-19T08:32:11.819Z,0.93
2023-01-19T08:37:13.457Z,0.67
2023-01-19T08:42:15.442Z,0.74
2023-01-19T08:47:17.479Z,0.71
2023-01-19T08:52:19.159Z,0.51
2023-01-19T08:57:20.741Z,0.64
2023-01-19T09:02:22.476Z,0.62
2023-01-19T09:07:24.150Z,0.56
2023-01-19T09:12:25.728Z,0.78
2023-01-19T09:17:27.371Z,0.90
2023-01-19T09:22:28.944Z,0.93
2023-01-19T09:27:30.858Z,1.18
2023-01-19T09:32:32.580Z,1.47
2023-01-19T09:37:34.241Z,1.72
2023-01-19T09:42:43.868Z,1.91
2023-01-19T09:47:48.669Z,1.68
2023-01-19T09:53:01.445Z,1.72
2023-01-19T09:58:09.459Z,1.63
2023-01-19T10:03:16.426Z,1.62
2023-01-19T10:08:39.351Z,1.57
2023-01-19T10:13:54.361Z,1.59
2023-01-19T10:19:02.080Z,1.71
2023-01-19T10:24:18.383Z,1.40
2023-01-19T10:29:26.570Z,1.39
2023-01-19T10:34:28.169Z,1.52
2023-01-19T10:39:29.960Z,1.77
2023-01-19T10:44:37.289Z,1.50
2023-01-19T10:49:44.640Z,1.68
2023-01-19T10:54:48.493Z,1.75
2023-01-19T10:59:51.560Z,1.76
2023-01-19T11:04:58.855Z,1.94
2023-01-19T11:10:15.691Z,1.91
2023-01-19T11:15:41.108Z,1.76
2023-01-19T11:20:52.664Z,1.84
2023-01-19T11:25:58.134Z,2.07
2023-01-19T11:30:59.698Z,2.06
2023-01-19T11:36:15.461Z,1.99
2023-01-19T11:41:18.890Z,1.94
2023-01-19T11:46:21.486Z,2.10
2023-01-19T11:51:25.271Z,2.11
2023-01-19T11:56:29.225Z,2.01
2023-01-19T12:01:34.457Z,1.71
2023-01-19T12:06:41.689Z,1.82
2023-01-19T12:12:01.685Z,1.98
2023-01-19T12:17:06.066Z,2.07
2023-01-19T12:22:14.026Z,1.99
2023-01-19T12:27:38.575Z,2.13
2023-01-19T12:32:40.176Z,2.11
2023-01-19T12:37:43.326Z,2.18
2023-01-19T12:42:57.005Z,2.03
2023-01-19T12:47:59.414Z,1.89
2023-01-19T12:53:03.034Z,1.83
2023-01-19T12:58:17.816Z,2.21
2023-01-19T13:03:44.076Z,2.30
2023-01-19T13:08:59.940Z,2.15
2023-01-19T13:14:01.482Z,2.23
2023-01-19T13:19:06.265Z,2.32
2023-01-19T13:24:10.638Z,2.29
2023-01-19T13:29:33.866Z,2.15
2023-01-19T13:34:44.090Z,2.18
2023-01-19T13:39:50.083Z,2.34
2023-01-19T13:44:55.276Z,2.39
2023-01-19T13:49:58.293Z,2.40
2023-01-19T13:55:03.513Z,2.32
2023-01-19T14:00:15.364Z,2.41
2023-01-19T14:05:23.225Z,2.17
2023-01-19T14:10:24.833Z,2.39
2023-01-19T14:15:27.654Z,2.53
2023-01-19T14:20:30.669Z,2.73
2023-01-19T14:25:38.813Z,2.70
2023-01-19T14:30:40.506Z,2.64
2023-01-19T14:35:43.611Z,2.63
2023-01-19T14:40:45.418Z,2.61
2023-01-19T14:45:47.619Z,2.53
2023-01-19T14:51:02.838Z,2.57
2023-01-19T14:56:06.813Z,2.60
2023-01-19T15:01:09.341Z,2.81
2023-01-19T15:06:14.900Z,3.07
2023-01-19T15:11:24.654Z,3.24
2023-01-19T15:16:28.652Z,3.33
2023-01-19T15:21:30.293Z,3.26
2023-01-19T15:26:31.919Z,3.29
2023-01-19T15:31:33.524Z,3.21
2023-01-19T15:36:35.146Z,3.14
2023-01-19T15:41:39.588Z,3.09
2023-01-19T15:46:41.285Z,2.91
2023-01-19T15:51:42.955Z,2.91
2023-01-19T15:56:44.686Z,2.76
2023-01-19T16:01:46.601Z,2.69
2023-01-19T16:06:50.077Z,2.57
2023-01-19T16:11:56.613Z,2.45
2023-01-19T16:17:00.064Z,2.44
2023-01-19T16:22:01.959Z,2.45
2023-01-19T16:27:04.222Z,2.47
2023-01-19T16:32:06.385Z,2.46
2023-01-19T16:37:08.333Z,2.41
2023-01-19T16:42:10.012Z,2.39
2023-01-19T16:47:11.664Z,2.36
2023-01-19T16:52:13.272Z,2.18
2023-01-19T16:57:15.075Z,2.07
2023-01-19T17:02:16.836Z,1.94
2023-01-19T17:07:19.394Z,1.73
2023-01-19T17:12:21.064Z,1.68
2023-01-19T17:17:22.663Z,1.58
2023-01-19T17:22:24.268Z,1.41
2023-01-19T17:27:25.931Z,1.10
2023-01-19T17:32:27.512Z,1.00
2023-01-19T17:37:29.103Z,0.88
2023-01-19T17:42:30.717Z,0.75
2023-01-19T17:47:32.315Z,0.57
2023-01-19T17:52:33.980Z,0.48
2023-01-19T17:57:36.139Z,0.45
2023-01-19T18:02:37.783Z,0.44
2023-01-19T18:07:40.250Z,0.39
2023-01-19T18:12:42.299Z,0.39
2023-01-19T18:17:44.068Z,0.32
2023-01-19T18:22:45.698Z,0.31
2023-01-19T18:27:47.370Z,0.29
2023-01-19T18:32:51.568Z,0.22
2023-01-19T18:37:54.952Z,0.18
2023-01-19T18:42:56.597Z,0.11
2023-01-19T18:47:58.213Z,-0.03
2023-01-19T18:52:59.919Z,-0.11
2023-01-19T18:58:01.823Z,-0.14
2023-01-19T19:03:03.504Z,-0.15
2023-01-19T19:08:05.931Z,-0.13
2023-01-19T19:13:09.060Z,-0.16
2023-01-19T19:18:13.236Z,-0.20
2023-01-19T19:23:15.164Z,-0.34
2023-01-19T19:28:18.338Z,-0.49
2023-01-19T19:33:19.914Z,-0.58
2023-01-19T19:38:21.504Z,-0.71
2023-01-19T19:43:26.873Z,-0.72
2023-01-19T19:48:28.577Z,-0.74
2023-01-19T19:53:30.234Z,-0.76
2023-01-19T19:58:31.937Z,-0.76
2023-01-19T20:03:33.544Z,-0.77
2023-01-19T20:08:36.129Z,-0.82
2023-01-19T20:13:39.065Z,-0.85
2023-01-19T20:18:42.422Z,-0.93
2023-01-19T20:23:45.049Z,-1.03
2023-01-19T20:28:47.627Z,-1.06
2023-01-19T20:33:50.969Z,-1.09
2023-01-19T20:38:53.926Z,-1.16
2023-01-19T20:43:55.713Z,-1.17
2023-01-19T20:48:57.339Z,-1.22
2023-01-19T20:53:59.412Z,-1.20
2023-01-19T20:59:02.118Z,-1.35
2023-01-19T21:04:03.959Z,-1.41
2023-01-19T21:09:05.941Z,-1.40
2023-01-19T21:14:07.827Z,-1.42
2023-01-19T21:19:09.444Z,-1.46
2023-01-19T21:24:11.156Z,-1.50
2023-01-19T21:29:14.039Z,-1.54
2023-01-19T21:34:15.669Z,-1.58
2023-01-19T21:39:17.528Z,-1.62
2023-01-19T21:44:19.173Z,-1.64
2023-01-19T21:49:21.134Z,-1.63
2023-01-19T21:54:22.754Z,-1.64
2023-01-19T21:59:24.399Z,-1.69
2023-01-19T22:04:26.005Z,-1.71
2023-01-19T22:09:27.622Z,-1.74
2023-01-19T22:14:29.553Z,-1.81
2023-01-19T22:19:31.144Z,-1.78
2023-01-19T22:24:32.760Z,-1.60
2023-01-19T22:29:34.635Z,-1.36
2023-01-19T22:34:36.233Z,-1.29
2023-01-19T22:39:37.947Z,-1.16
2023-01-19T22:44:39.596Z,-1.11
2023-01-19T22:49:41.195Z,-1.16
2023-01-19T22:54:42.854Z,-1.13
2023-01-19T22:59:45.426Z,-0.98
2023-01-19T23:04:47.077Z,-0.86
2023-01-19T23:09:48.673Z,-0.70
2023-01-19T23:14:50.234Z,-0.66
2023-01-19T23:19:51.888Z,-0.68
2023-01-19T23:24:53.455Z,-0.93
2023-01-19T23:29:55.051Z,-0.96
2023-01-19T23:34:56.726Z,-0.94
2023-01-19T23:39:58.348Z,-1.09
2023-01-19T23:44:59.960Z,-1.19
2023-01-19T23:50:02.935Z,-1.23
2023-01-19T23:55:05.356Z,-1.41
